createdAt,value
2023-01-13T00:01:08.814Z,1.80
2023-01-13T00:03:38.392Z,1.80
2023-01-13T00:06:07.795Z,1.90
2023-01-13T00:08:35.826Z,1.80
2023-01-13T00:11:03.675Z,1.63
2023-01-13T00:13:33.579Z,1.70
2023-01-13T00:16:03.972Z,1.70
2023-01-13T00:18:32.345Z,1.60
2023-01-13T00:21:02.590Z,1.60
2023-01-13T00:23:31.505Z,1.80
2023-01-13T00:26:00.487Z,1.70
2023-01-13T00:28:28.680Z,1.40
2023-01-13T00:30:58.538Z,1.60
2023-01-13T00:33:26.893Z,1.63
2023-01-13T00:35:58.375Z,1.60
2023-01-13T00:38:28.112Z,1.67
2023-01-13T00:40:59.291Z,1.60
2023-01-13T00:43:26.990Z,1.83
2023-01-13T00:45:55.136Z,1.60
2023-01-13T00:48:25.423Z,1.53
2023-01-13T00:50:57.505Z,1.60
2023-01-13T00:53:28.064Z,1.40
2023-01-13T00:56:02.505Z,1.30
2023-01-13T00:58:33.214Z,1.30
2023-01-13T01:01:01.875Z,1.20
2023-01-13T01:03:30.352Z,1.20
2023-01-13T01:05:58.790Z,1.10
2023-01-13T01:08:27.958Z,1.47
2023-01-13T01:11:02.804Z,1.27
2023-01-13T01:13:30.799Z,1.17
2023-01-13T01:15:58.737Z,1.20
2023-01-13T01:18:26.787Z,0.93
2023-01-13T01:20:54.671Z,0.87
2023-01-13T01:23:22.649Z,1.17
2023-01-13T01:25:51.908Z,0.90
2023-01-13T01:28:20.645Z,0.80
2023-01-13T01:30:48.615Z,1.10
2023-01-13T01:33:16.852Z,1.03
2023-01-13T01:35:44.701Z,0.90
2023-01-13T01:38:12.676Z,1.23
2023-01-13T01:40:40.622Z,1.20
2023-01-13T01:43:33.661Z,1.00
2023-01-13T01:46:01.788Z,1.10
2023-01-13T01:48:32.555Z,1.10
2023-01-13T01:51:00.857Z,1.20
2023-01-13T01:53:30.912Z,1.43
2023-01-13T01:55:59.952Z,1.17
2023-01-13T01:58:32.260Z,0.97
2023-01-13T02:01:00.889Z,1.47
2023-01-13T02:03:28.990Z,1.60
2023-01-13T02:05:57.115Z,1.30
2023-01-13T02:08:25.160Z,1.27
2023-01-13T02:10:55.154Z,1.70
2023-01-13T02:13:23.201Z,1.47
2023-01-13T02:15:58.893Z,1.30
2023-01-13T02:18:40.011Z,1.63
2023-01-13T02:21:36.531Z,1.63
2023-01-13T02:24:57.501Z,1.67
2023-01-13T02:27:42.588Z,1.70
2023-01-13T02:30:38.538Z,1.60
2023-01-13T02:33:28.947Z,1.83
2023-01-13T02:36:03.424Z,1.90
2023-01-13T02:38:35.823Z,1.70
2023-01-13T02:41:22.296Z,1.93
2023-01-13T02:44:07.820Z,2.13
2023-01-13T02:46:42.780Z,1.80
2023-01-13T02:49:20.016Z,1.90
2023-01-13T02:51:50.215Z,1.50
2023-01-13T02:54:22.922Z,1.90
2023-01-13T02:56:52.013Z,1.43
2023-01-13T02:59:21.422Z,2.10
2023-01-13T03:01:51.773Z,1.60
2023-01-13T03:04:46.713Z,1.83
2023-01-13T03:07:24.047Z,1.87
2023-01-13T03:09:59.850Z,2.40
2023-01-13T03:12:39.006Z,2.20
2023-01-13T03:15:18.115Z,2.23
2023-01-13T03:17:56.869Z,2.10
2023-01-13T03:20:28.137Z,2.30
2023-01-13T03:23:03.516Z,1.90
2023-01-13T03:25:36.031Z,2.47
2023-01-13T03:28:06.353Z,2.20
2023-01-13T03:30:40.839Z,2.17
2023-01-13T03:33:16.993Z,2.03
2023-01-13T03:35:47.057Z,2.47
2023-01-13T03:38:22.790Z,2.40
2023-01-13T03:40:54.585Z,2.43
2023-01-13T03:43:45.683Z,2.30
2023-01-13T03:46:19.637Z,2.13
2023-01-13T03:48:52.034Z,2.23
2023-01-13T03:51:22.729Z,2.30
2023-01-13T03:53:56.391Z,2.27
2023-01-13T03:56:28.784Z,2.70
2023-01-13T03:58:58.670Z,1.97
2023-01-13T04:01:29.907Z,2.57
2023-01-13T04:04:04.308Z,2.77
2023-01-13T04:06:38.081Z,2.17
2023-01-13T04:09:15.627Z,2.70
2023-01-13T04:11:47.672Z,2.63
2023-01-13T04:14:17.563Z,2.57
2023-01-13T04:16:45.507Z,3.20
2023-01-13T04:19:14.655Z,2.53
2023-01-13T04:21:42.543Z,2.70
2023-01-13T04:24:10.576Z,2.57
2023-01-13T04:26:38.472Z,3.30
2023-01-13T04:29:06.322Z,3.00
2023-01-13T04:31:34.204Z,2.87
2023-01-13T04:34:01.995Z,2.70
2023-01-13T04:36:31.208Z,2.80
2023-01-13T04:38:59.018Z,2.63
2023-01-13T04:41:26.879Z,2.93
2023-01-13T04:43:54.769Z,3.00
2023-01-13T04:46:23.050Z,2.67
2023-01-13T04:48:50.894Z,3.03
2023-01-13T04:51:18.771Z,2.87
2023-01-13T04:53:47.946Z,3.20
2023-01-13T04:56:15.766Z,3.67
2023-01-13T04:58:43.589Z,3.00
2023-01-13T05:01:11.531Z,2.73
2023-01-13T05:03:39.450Z,2.67
2023-01-13T05:06:07.794Z,2.83
2023-01-13T05:08:35.713Z,2.80
2023-01-13T05:11:25.533Z,3.00
2023-01-13T05:14:11.099Z,2.80
2023-01-13T05:16:56.346Z,3.20
2023-01-13T05:19:24.364Z,3.30
2023-01-13T05:22:09.580Z,2.90
2023-01-13T05:24:55.242Z,2.47
2023-01-13T05:27:24.460Z,2.87
2023-01-13T05:29:52.345Z,2.77
2023-01-13T05:32:20.222Z,2.90
2023-01-13T05:34:48.091Z,2.30
2023-01-13T05:37:16.054Z,2.57
2023-01-13T05:40:01.486Z,2.30
2023-01-13T05:42:48.162Z,2.60
2023-01-13T05:45:16.294Z,3.43
2023-01-13T05:47:44.131Z,3.27
2023-01-13T05:50:12.159Z,3.00
2023-01-13T05:52:40.020Z,2.73
2023-01-13T05:55:08.451Z,2.93
2023-01-13T05:57:37.963Z,3.70
2023-01-13T06:00:07.167Z,2.70
2023-01-13T06:02:40.665Z,3.20
2023-01-13T06:05:09.369Z,3.13
2023-01-13T06:07:37.146Z,2.93
2023-01-13T06:10:05.692Z,3.10
2023-01-13T06:12:33.559Z,2.83
2023-01-13T06:15:03.188Z,3.60
2023-01-13T06:17:31.068Z,3.23
2023-01-13T06:19:58.912Z,2.80
2023-01-13T06:22:30.823Z,3.00
2023-01-13T06:24:58.895Z,2.83
2023-01-13T06:27:27.123Z,2.97
2023-01-13T06:29:56.505Z,3.00
2023-01-13T06:32:30.299Z,3.10
2023-01-13T06:35:05.297Z,3.00
2023-01-13T06:37:34.214Z,3.20
2023-01-13T06:40:04.745Z,3.33
2023-01-13T06:42:53.250Z,2.80
2023-01-13T06:45:21.561Z,3.47
2023-01-13T06:47:51.668Z,3.00
2023-01-13T06:50:19.900Z,3.07
2023-01-13T06:52:47.865Z,2.87
2023-01-13T06:55:15.754Z,2.77
2023-01-13T06:57:51.125Z,2.93
2023-01-13T07:00:19.851Z,2.87
2023-01-13T07:02:48.070Z,3.13
2023-01-13T07:05:18.663Z,3.07
2023-01-13T07:07:46.561Z,3.53
2023-01-13T07:10:22.248Z,3.53
2023-01-13T07:13:08.265Z,2.90
2023-01-13T07:15:36.303Z,3.27
2023-01-13T07:18:04.398Z,2.97
2023-01-13T07:20:33.862Z,3.10
2023-01-13T07:23:01.726Z,2.97
2023-01-13T07:25:29.530Z,3.10
2023-01-13T07:27:59.131Z,3.10
2023-01-13T07:30:27.011Z,3.90
2023-01-13T07:32:54.837Z,3.43
2023-01-13T07:35:23.396Z,3.23
2023-01-13T07:37:52.581Z,3.73
2023-01-13T07:40:20.450Z,3.50
2023-01-13T07:43:06.068Z,3.63
2023-01-13T07:45:33.959Z,3.30
2023-01-13T07:48:01.753Z,3.87
2023-01-13T07:50:29.658Z,3.13
2023-01-13T07:53:00.316Z,2.97
2023-01-13T07:55:28.251Z,3.30
2023-01-13T07:57:56.100Z,3.50
2023-01-13T08:00:24.702Z,3.97
2023-01-13T08:02:52.544Z,3.77
2023-01-13T08:05:20.486Z,4.00
2023-01-13T08:07:48.311Z,3.93
2023-01-13T08:10:17.894Z,3.30
2023-01-13T08:13:03.577Z,3.80
2023-01-13T08:15:32.716Z,3.30
2023-01-13T08:18:00.513Z,3.40
2023-01-13T08:20:28.661Z,2.90
2023-01-13T08:22:58.089Z,3.63
2023-01-13T08:25:28.451Z,3.07
2023-01-13T08:27:56.825Z,3.93
2023-01-13T08:30:24.781Z,3.70
2023-01-13T08:32:52.659Z,3.00
2023-01-13T08:35:20.894Z,4.20
2023-01-13T08:37:49.753Z,3.50
2023-01-13T08:40:19.019Z,3.47
2023-01-13T08:42:48.799Z,3.90
2023-01-13T08:45:16.858Z,4.17
2023-01-13T08:47:44.689Z,3.63
2023-01-13T08:50:15.255Z,3.93
2023-01-13T08:52:43.192Z,3.53
2023-01-13T08:55:11.369Z,3.37
2023-01-13T08:57:39.503Z,3.93
2023-01-13T09:00:10.613Z,4.30
2023-01-13T09:02:39.112Z,3.50
2023-01-13T09:05:07.622Z,3.80
2023-01-13T09:07:36.789Z,3.30
2023-01-13T09:10:07.379Z,3.63
2023-01-13T09:12:52.914Z,3.70
2023-01-13T09:15:22.322Z,3.50
2023-01-13T09:17:50.130Z,3.33
2023-01-13T09:20:18.268Z,3.60
2023-01-13T09:22:46.242Z,2.97
2023-01-13T09:25:14.232Z,3.63
2023-01-13T09:27:42.094Z,2.87
2023-01-13T09:30:11.174Z,3.10
2023-01-13T09:32:40.384Z,2.63
2023-01-13T09:35:08.278Z,2.70
2023-01-13T09:37:37.813Z,3.20
2023-01-13T09:40:10.371Z,3.10
2023-01-13T09:43:10.655Z,2.60
2023-01-13T09:45:42.494Z,2.47
2023-01-13T09:48:17.204Z,3.07
2023-01-13T09:50:59.474Z,2.50
2023-01-13T09:53:33.014Z,1.80
2023-01-13T09:56:01.326Z,2.00
2023-01-13T09:58:29.457Z,2.23
2023-01-13T10:01:07.421Z,2.33
2023-01-13T10:03:37.210Z,2.33
2023-01-13T10:06:13.378Z,2.20
2023-01-13T10:08:43.079Z,2.00
2023-01-13T10:11:33.581Z,2.20
2023-01-13T10:14:04.262Z,2.40
2023-01-13T10:16:42.265Z,1.90
2023-01-13T10:19:19.742Z,2.20
2023-01-13T10:22:10.892Z,2.57
2023-01-13T10:25:00.110Z,1.97
2023-01-13T10:27:32.993Z,2.37
2023-01-13T10:30:11.009Z,2.47
2023-01-13T10:32:39.305Z,2.07
2023-01-13T10:35:09.341Z,2.30
2023-01-13T10:37:37.274Z,2.27
2023-01-13T10:40:07.612Z,1.83
2023-01-13T10:42:35.464Z,1.90
2023-01-13T10:45:03.823Z,1.57
2023-01-13T10:47:33.566Z,2.37
2023-01-13T10:50:08.654Z,1.60
2023-01-13T10:52:43.424Z,1.90
2023-01-13T10:55:26.523Z,2.17
2023-01-13T10:57:54.436Z,2.07
2023-01-13T11:00:29.038Z,2.00
2023-01-13T11:03:16.084Z,2.00
2023-01-13T11:05:51.173Z,1.97
2023-01-13T11:08:22.987Z,1.87
2023-01-13T11:10:53.503Z,2.17
2023-01-13T11:13:29.243Z,1.90
2023-01-13T11:16:02.494Z,1.97
2023-01-13T11:18:40.920Z,2.20
2023-01-13T11:21:16.499Z,2.20
2023-01-13T11:23:51.005Z,2.10
2023-01-13T11:26:22.615Z,2.30
2023-01-13T11:29:01.012Z,2.50
2023-01-13T11:31:34.527Z,2.20
2023-01-13T11:34:08.836Z,2.10
2023-01-13T11:36:41.239Z,2.20
2023-01-13T11:39:19.489Z,2.47
2023-01-13T11:42:13.196Z,2.30
2023-01-13T11:44:46.035Z,2.70
2023-01-13T11:47:15.174Z,2.53
2023-01-13T11:49:48.393Z,2.57
2023-01-13T11:52:22.439Z,3.00
2023-01-13T11:55:23.773Z,2.87
2023-01-13T11:58:05.184Z,2.23
2023-01-13T12:01:06.181Z,2.13
2023-01-13T12:03:38.276Z,2.13
2023-01-13T12:06:18.257Z,2.23
2023-01-13T12:08:59.568Z,2.60
2023-01-13T12:11:54.708Z,2.20
2023-01-13T12:14:36.260Z,2.27
2023-01-13T12:17:12.442Z,2.10
2023-01-13T12:19:42.810Z,2.30
2023-01-13T12:22:13.603Z,2.00
2023-01-13T12:24:50.374Z,2.27
2023-01-13T12:27:26.973Z,1.97
2023-01-13T12:29:59.543Z,2.20
2023-01-13T12:32:35.073Z,2.67
2023-01-13T12:35:17.992Z,2.50
2023-01-13T12:37:53.500Z,2.10
2023-01-13T12:40:34.273Z,2.20
2023-01-13T12:43:33.435Z,2.17
2023-01-13T12:46:35.595Z,2.60
2023-01-13T12:49:21.185Z,2.50
2023-01-13T12:52:18.297Z,2.13
2023-01-13T12:55:22.776Z,2.30
2023-01-13T12:58:15.324Z,2.43
2023-01-13T13:00:59.619Z,2.40
2023-01-13T13:03:33.700Z,2.20
2023-01-13T13:06:23.672Z,2.23
2023-01-13T13:09:03.882Z,2.50
2023-01-13T13:11:56.166Z,2.70
2023-01-13T13:15:04.404Z,2.60
2023-01-13T13:17:43.148Z,2.60
2023-01-13T13:20:44.427Z,2.63
2023-01-13T13:23:28.504Z,2.50
2023-01-13T13:26:07.452Z,2.87
2023-01-13T13:28:39.019Z,3.47
2023-01-13T13:31:20.307Z,3.07
2023-01-13T13:34:15.441Z,2.63
2023-01-13T13:36:56.308Z,2.60
2023-01-13T13:39:44.962Z,3.00
2023-01-13T13:42:32.164Z,2.83
2023-01-13T13:45:19.585Z,2.80
2023-01-13T13:47:48.853Z,2.30
2023-01-13T13:50:19.896Z,2.80
2023-01-13T13:52:54.825Z,2.60
2023-01-13T13:55:25.762Z,2.53
2023-01-13T13:57:54.871Z,2.60
2023-01-13T14:00:28.318Z,2.37
2023-01-13T14:03:01.461Z,2.80
2023-01-13T14:05:31.337Z,2.53
2023-01-13T14:08:01.293Z,2.80
2023-01-13T14:10:35.201Z,2.07
2023-01-13T14:13:13.571Z,2.80
2023-01-13T14:15:41.962Z,2.57
2023-01-13T14:18:15.602Z,2.60
2023-01-13T14:20:44.325Z,2.47
2023-01-13T14:23:17.243Z,2.63
2023-01-13T14:25:48.878Z,2.57
2023-01-13T14:28:27.390Z,2.50
2023-01-13T14:30:56.406Z,2.63
2023-01-13T14:33:35.183Z,2.33
2023-01-13T14:36:24.572Z,3.67
2023-01-13T14:39:25.148Z,2.77
2023-01-13T14:41:53.602Z,3.40
2023-01-13T14:44:26.779Z,2.87
2023-01-13T14:46:57.160Z,3.03
2023-01-13T14:49:31.954Z,3.10
2023-01-13T14:52:08.912Z,3.03
2023-01-13T14:54:45.887Z,3.17
2023-01-13T14:57:15.779Z,3.17
2023-01-13T14:59:48.619Z,2.80
2023-01-13T15:02:48.357Z,2.57
2023-01-13T15:05:48.202Z,3.60
2023-01-13T15:08:36.521Z,2.60
2023-01-13T15:11:06.882Z,3.43
2023-01-13T15:13:41.206Z,5.07
2023-01-13T15:16:18.051Z,3.27
2023-01-13T15:18:46.616Z,4.43
2023-01-13T15:21:16.539Z,2.87
2023-01-13T15:23:47.116Z,3.27
2023-01-13T15:26:23.876Z,2.63
2023-01-13T15:28:52.955Z,2.87
2023-01-13T15:31:21.538Z,2.80
2023-01-13T15:33:49.683Z,2.70
2023-01-13T15:36:25.791Z,2.13
2023-01-13T15:38:53.874Z,2.70
2023-01-13T15:41:41.849Z,2.23
2023-01-13T15:44:28.899Z,2.27
2023-01-13T15:46:57.474Z,2.70
2023-01-13T15:49:34.566Z,3.20
2023-01-13T15:52:05.295Z,2.97
2023-01-13T15:54:33.179Z,3.93
2023-01-13T15:57:01.031Z,3.20
2023-01-13T15:59:29.431Z,5.23
2023-01-13T16:01:57.261Z,2.40
2023-01-13T16:04:25.134Z,2.60
2023-01-13T16:06:52.951Z,2.73
2023-01-13T16:09:22.402Z,2.60
2023-01-13T16:11:50.240Z,2.50
2023-01-13T16:14:18.136Z,1.87
2023-01-13T16:16:46.064Z,1.53
2023-01-13T16:19:13.891Z,1.80
2023-01-13T16:21:41.783Z,1.80
2023-01-13T16:24:09.640Z,1.63
2023-01-13T16:26:39.000Z,2.10
2023-01-13T16:29:07.255Z,1.63
2023-01-13T16:31:35.591Z,1.53
2023-01-13T16:34:05.650Z,2.30
2023-01-13T16:36:36.854Z,1.90
2023-01-13T16:39:05.796Z,1.70
2023-01-13T16:41:34.748Z,1.97
2023-01-13T16:44:06.037Z,2.03
2023-01-13T16:46:34.313Z,2.00
2023-01-13T16:49:05.333Z,2.10
2023-01-13T16:51:34.154Z,2.10
2023-01-13T16:54:01.972Z,2.37
2023-01-13T16:56:31.421Z,3.53
2023-01-13T16:59:01.251Z,3.50
2023-01-13T17:01:33.096Z,2.60
2023-01-13T17:04:02.697Z,2.07
2023-01-13T17:06:34.530Z,2.10
2023-01-13T17:09:04.221Z,1.33
2023-01-13T17:11:32.533Z,1.60
2023-01-13T17:14:00.431Z,1.90
2023-01-13T17:16:36.580Z,1.90
2023-01-13T17:19:04.488Z,1.57
2023-01-13T17:21:32.378Z,2.27
2023-01-13T17:24:00.382Z,1.70
2023-01-13T17:26:33.373Z,1.77
2023-01-13T17:29:03.666Z,2.37
2023-01-13T17:31:31.751Z,3.30
2023-01-13T17:34:02.086Z,2.70
2023-01-13T17:36:30.115Z,3.27
2023-01-13T17:38:58.591Z,1.73
2023-01-13T17:41:27.078Z,1.93
2023-01-13T17:43:55.151Z,2.30
2023-01-13T17:46:23.361Z,2.40
2023-01-13T17:48:52.676Z,1.97
2023-01-13T17:51:24.951Z,2.73
2023-01-13T17:53:54.234Z,1.83
2023-01-13T17:56:22.197Z,2.03
2023-01-13T17:58:50.054Z,1.80
2023-01-13T18:01:19.762Z,2.30
2023-01-13T18:03:48.241Z,2.40
2023-01-13T18:06:18.225Z,1.90
2023-01-13T18:08:48.126Z,2.30
2023-01-13T18:11:18.623Z,2.17
2023-01-13T18:13:49.561Z,2.40
2023-01-13T18:16:19.721Z,2.57
2023-01-13T18:18:49.677Z,2.27
2023-01-13T18:21:39.298Z,2.37
2023-01-13T18:24:30.254Z,1.87
2023-01-13T18:27:15.847Z,2.03
2023-01-13T18:29:43.950Z,2.00
2023-01-13T18:32:11.972Z,2.27
2023-01-13T18:34:40.363Z,2.20
2023-01-13T18:37:10.029Z,2.20
2023-01-13T18:39:39.280Z,2.13
2023-01-13T18:42:35.186Z,1.93
2023-01-13T18:45:03.224Z,2.33
2023-01-13T18:47:32.077Z,2.33
2023-01-13T18:50:00.141Z,2.37
2023-01-13T18:52:28.119Z,1.70
2023-01-13T18:54:57.379Z,2.33
2023-01-13T18:57:25.256Z,2.07
2023-01-13T18:59:53.176Z,2.40
2023-01-13T19:02:22.145Z,1.70
2023-01-13T19:04:50.301Z,1.90
2023-01-13T19:07:23.288Z,1.30
2023-01-13T19:09:51.359Z,1.60
2023-01-13T19:12:25.961Z,1.60
2023-01-13T19:14:54.590Z,2.43
2023-01-13T19:17:23.822Z,2.10
2023-01-13T19:19:54.489Z,1.60
2023-01-13T19:22:24.149Z,1.57
2023-01-13T19:24:52.078Z,1.63
2023-01-13T19:27:22.347Z,1.77
2023-01-13T19:29:53.494Z,1.70
2023-01-13T19:32:22.542Z,2.23
2023-01-13T19:34:51.239Z,1.60
2023-01-13T19:37:19.886Z,1.77
2023-01-13T19:39:47.832Z,1.40
2023-01-13T19:42:33.110Z,1.37
2023-01-13T19:45:20.005Z,1.30
2023-01-13T19:47:47.902Z,1.50
2023-01-13T19:50:16.008Z,1.43
2023-01-13T19:52:44.349Z,2.20
2023-01-13T19:55:12.600Z,6.80
2023-01-13T19:57:41.106Z,3.23
2023-01-13T20:00:13.977Z,6.30
2023-01-13T20:02:47.606Z,1.50
2023-01-13T20:05:20.797Z,1.80
2023-01-13T20:07:49.880Z,2.23
2023-01-13T20:10:18.270Z,1.60
2023-01-13T20:12:46.218Z,1.70
2023-01-13T20:15:15.616Z,2.10
2023-01-13T20:17:43.428Z,1.90
2023-01-13T20:20:13.496Z,2.00
2023-01-13T20:22:41.655Z,1.90
2023-01-13T20:25:11.363Z,1.57
2023-01-13T20:27:39.342Z,1.87
2023-01-13T20:30:09.411Z,2.30
2023-01-13T20:32:38.877Z,2.30
2023-01-13T20:35:08.136Z,2.30
2023-01-13T20:37:37.312Z,1.67
2023-01-13T20:40:06.311Z,2.10
2023-01-13T20:42:42.362Z,1.93
2023-01-13T20:45:11.661Z,1.80
2023-01-13T20:47:40.961Z,1.90
2023-01-13T20:50:09.648Z,1.63
2023-01-13T20:52:37.721Z,1.40
2023-01-13T20:55:06.695Z,1.60
2023-01-13T20:57:34.609Z,1.40
2023-01-13T21:00:03.130Z,2.00
2023-01-13T21:02:31.371Z,1.80
2023-01-13T21:05:00.623Z,1.93
2023-01-13T21:07:28.468Z,1.50
2023-01-13T21:09:57.264Z,1.70
2023-01-13T21:12:42.904Z,1.80
2023-01-13T21:15:19.945Z,1.50
2023-01-13T21:18:06.804Z,1.63
2023-01-13T21:20:38.426Z,1.70
2023-01-13T21:23:07.737Z,1.77
2023-01-13T21:25:36.934Z,2.07
2023-01-13T21:28:07.224Z,2.40
2023-01-13T21:30:35.720Z,1.50
2023-01-13T21:33:03.996Z,1.60
2023-01-13T21:35:31.956Z,2.03
2023-01-13T21:38:01.155Z,2.00
2023-01-13T21:40:29.066Z,1.33
2023-01-13T21:43:14.318Z,1.50
2023-01-13T21:45:59.621Z,1.60
2023-01-13T21:48:27.749Z,1.80
2023-01-13T21:50:55.571Z,1.50
2023-01-13T21:53:24.806Z,2.40
2023-01-13T21:55:53.180Z,1.93
2023-01-13T21:58:21.044Z,3.30
2023-01-13T22:00:49.727Z,2.00
2023-01-13T22:03:18.742Z,2.40
2023-01-13T22:05:47.110Z,1.63
2023-01-13T22:08:15.132Z,2.27
2023-01-13T22:10:57.133Z,2.23
2023-01-13T22:13:43.494Z,2.30
2023-01-13T22:16:11.630Z,1.73
2023-01-13T22:18:39.489Z,1.60
2023-01-13T22:21:07.516Z,2.07
2023-01-13T22:23:35.323Z,1.90
2023-01-13T22:26:05.744Z,1.90
2023-01-13T22:28:40.398Z,1.60
2023-01-13T22:31:09.362Z,2.27
2023-01-13T22:33:37.714Z,1.67
2023-01-13T22:36:06.016Z,1.80
2023-01-13T22:38:34.838Z,2.40
2023-01-13T22:41:06.146Z,1.70
2023-01-13T22:43:35.146Z,2.33
2023-01-13T22:46:06.163Z,1.70
2023-01-13T22:48:34.555Z,2.00
2023-01-13T22:51:06.330Z,1.83
2023-01-13T22:53:34.408Z,2.00
2023-01-13T22:56:04.478Z,2.00
2023-01-13T22:58:32.400Z,2.33
2023-01-13T23:01:08.955Z,2.10
2023-01-13T23:03:36.970Z,2.07
2023-01-13T23:06:05.112Z,2.00
2023-01-13T23:08:34.260Z,1.80
2023-01-13T23:11:04.505Z,2.10
2023-01-13T23:13:32.496Z,1.93
2023-01-13T23:16:03.762Z,2.07
2023-01-13T23:18:32.353Z,1.90
2023-01-13T23:21:04.510Z,1.90
2023-01-13T23:23:32.893Z,1.93
2023-01-13T23:26:01.175Z,1.70
2023-01-13T23:28:31.652Z,1.80
2023-01-13T23:30:59.880Z,1.97
2023-01-13T23:33:27.950Z,1.80
2023-01-13T23:35:59.271Z,1.80
2023-01-13T23:38:27.817Z,1.63
2023-01-13T23:40:55.835Z,1.93
2023-01-13T23:43:24.015Z,1.93
2023-01-13T23:45:53.847Z,1.70
2023-01-13T23:48:21.742Z,1.80
2023-01-13T23:50:58.613Z,1.90
2023-01-13T23:53:31.836Z,1.70
2023-01-13T23:56:00.096Z,2.10
2023-01-13T23:58:28.705Z,1.70
